createdAt,value
2022-08-14T00:04:56.146Z,99351.19
2022-08-14T00:10:50.433Z,99343.69
2022-08-14T00:15:29.991Z,99339.63
2022-08-14T00:20:43.241Z,99336.25
2022-08-14T00:25:53.910Z,99333.00
2022-08-14T00:31:07.992Z,99331.38
2022-08-14T00:36:37.636Z,99325.63
2022-08-14T00:41:33.505Z,99328.34
2022-08-14T00:46:37.888Z,99326.66
2022-08-14T00:51:40.995Z,99326.78
2022-08-14T00:56:43.000Z,99320.13
2022-08-14T01:01:46.109Z,99320.31
2022-08-14T01:06:51.449Z,99317.00
2022-08-14T01:12:02.868Z,99323.03
2022-08-14T01:17:05.573Z,99317.00
2022-08-14T01:22:12.334Z,99316.19
2022-08-14T01:27:18.557Z,99323.78
2022-08-14T01:32:23.082Z,99328.13
2022-08-14T01:37:25.565Z,99324.75
2022-08-14T01:42:31.479Z,99319.63
2022-08-14T01:47:38.932Z,99317.97
2022-08-14T01:52:59.384Z,99317.06
2022-08-14T01:58:19.885Z,99319.69
2022-08-14T02:03:30.224Z,99313.94
2022-08-14T02:08:35.497Z,99302.09
2022-08-14T02:13:38.359Z,99309.84
2022-08-14T02:18:40.132Z,99305.56
2022-08-14T02:23:42.991Z,99302.16
2022-08-14T02:28:57.705Z,99302.91
2022-08-14T02:34:05.833Z,99306.41
2022-08-14T02:39:22.027Z,99307.84
2022-08-14T02:44:29.600Z,99312.09
2022-08-14T02:49:34.267Z,99310.28
2022-08-14T02:54:36.174Z,99313.63
2022-08-14T02:59:39.441Z,99313.47
2022-08-14T03:04:45.009Z,99313.47
2022-08-14T03:10:28.004Z,99309.97
2022-08-14T03:15:16.454Z,99320.06
2022-08-14T03:20:22.430Z,99304.75
2022-08-14T03:25:24.521Z,99316.53
2022-08-14T03:30:39.029Z,99314.75
2022-08-14T03:36:05.552Z,99316.41
2022-08-14T03:41:03.968Z,99309.66
2022-08-14T03:46:39.093Z,99310.44
2022-08-14T03:51:28.837Z,99311.28
2022-08-14T03:56:30.997Z,99311.28
2022-08-14T04:01:41.484Z,99301.03
2022-08-14T04:06:48.621Z,99305.22
2022-08-14T04:11:51.526Z,99305.97
2022-08-14T04:16:53.262Z,99308.47
2022-08-14T04:22:03.259Z,99296.41
2022-08-14T04:27:11.555Z,99303.22
2022-08-14T04:32:57.528Z,99300.66
2022-08-14T04:37:53.731Z,99286.94
2022-08-14T04:43:17.254Z,99291.94
2022-08-14T04:48:38.760Z,99279.13
2022-08-14T04:53:48.323Z,99278.22
2022-08-14T04:58:57.589Z,99277.19
2022-08-14T05:03:59.249Z,99289.09
2022-08-14T05:09:01.592Z,99279.66
2022-08-14T05:14:16.691Z,99271.09
2022-08-14T05:19:29.445Z,99268.28
2022-08-14T05:24:31.469Z,99265.69
2022-08-14T05:29:35.465Z,99267.06
2022-08-14T05:34:37.565Z,99262.63
2022-08-14T05:39:41.252Z,99273.44
2022-08-14T05:44:43.120Z,99264.72
2022-08-14T05:49:48.432Z,99266.22
2022-08-14T05:54:50.276Z,99271.81
2022-08-14T05:59:51.882Z,99265.81
2022-08-14T06:04:54.797Z,99281.94
2022-08-14T06:10:03.868Z,99280.16
2022-08-14T06:15:08.194Z,99270.78
2022-08-14T06:20:12.218Z,99276.19
2022-08-14T06:25:16.333Z,99272.88
2022-08-14T06:30:35.024Z,99269.13
2022-08-14T06:35:49.930Z,99268.13
2022-08-14T06:40:53.353Z,99266.88
2022-08-14T06:45:57.156Z,99266.44
2022-08-14T06:50:59.116Z,99278.09
2022-08-14T06:56:02.403Z,99283.00
2022-08-14T07:01:27.484Z,99277.22
2022-08-14T07:06:46.878Z,99264.19
2022-08-14T07:11:49.627Z,99266.75
2022-08-14T07:16:51.291Z,99272.56
2022-08-14T07:21:52.951Z,99271.75
2022-08-14T07:26:54.634Z,99278.63
2022-08-14T07:31:56.496Z,99275.50
2022-08-14T07:37:00.759Z,99266.53
2022-08-14T07:42:02.962Z,99269.03
2022-08-14T07:47:05.209Z,99259.19
2022-08-14T07:52:07.424Z,99258.44
2022-08-14T07:57:12.228Z,99255.81
2022-08-14T08:02:19.267Z,99250.75
2022-08-14T08:07:29.550Z,99250.84
2022-08-14T08:12:34.098Z,99245.72
2022-08-14T08:17:39.120Z,99246.06
2022-08-14T08:22:48.308Z,99239.41
2022-08-14T08:28:25.442Z,99251.91
2022-08-14T08:33:31.863Z,99242.72
2022-08-14T08:39:18.020Z,99248.03
2022-08-14T08:44:05.500Z,99244.91
2022-08-14T08:49:07.453Z,99238.84
2022-08-14T08:54:18.573Z,99236.91
2022-08-14T08:59:34.347Z,99239.00
2022-08-14T09:04:45.864Z,99231.22
2022-08-14T09:09:59.187Z,99230.78
2022-08-14T09:15:11.720Z,99235.38
2022-08-14T09:20:25.919Z,99240.53
2022-08-14T09:26:00.423Z,99238.69
2022-08-14T09:30:57.876Z,99244.84
2022-08-14T09:36:20.743Z,99249.00
2022-08-14T09:42:21.684Z,99240.00
2022-08-14T09:47:12.233Z,99236.59
2022-08-14T09:52:23.715Z,99232.34
2022-08-14T09:57:36.001Z,99227.13
2022-08-14T10:02:38.213Z,99217.25
2022-08-14T10:07:59.101Z,99209.81
2022-08-14T10:13:04.124Z,99209.53
2022-08-14T10:18:09.440Z,99198.06
2022-08-14T10:23:20.207Z,99197.38
2022-08-14T10:29:03.971Z,99196.56
2022-08-14T10:33:59.172Z,99186.19
2022-08-14T10:39:06.636Z,99182.03
2022-08-14T10:44:21.407Z,99192.78
2022-08-14T10:49:26.528Z,99190.50
2022-08-14T10:54:35.998Z,99182.88
2022-08-14T10:59:49.898Z,99178.34
2022-08-14T11:05:05.434Z,99183.09
2022-08-14T11:10:10.521Z,99180.13
2022-08-14T11:15:17.333Z,99180.75
2022-08-14T11:20:23.896Z,99173.28
2022-08-14T11:25:43.504Z,99165.00
2022-08-14T11:30:54.213Z,99166.59
2022-08-14T11:35:59.611Z,99160.50
2022-08-14T11:41:02.167Z,99154.53
2022-08-14T11:46:06.579Z,99161.34
2022-08-14T11:51:24.041Z,99166.19
2022-08-14T11:56:35.812Z,99161.66
2022-08-14T12:01:41.176Z,99160.94
2022-08-14T12:06:55.954Z,99152.50
2022-08-14T12:11:57.813Z,99164.72
2022-08-14T12:17:12.599Z,99159.78
2022-08-14T12:22:17.680Z,99145.94
2022-08-14T12:27:46.640Z,99145.13
2022-08-14T12:32:56.310Z,99142.84
2022-08-14T12:37:58.563Z,99132.63
2022-08-14T12:43:03.275Z,99132.47
2022-08-14T12:48:21.537Z,99131.66
2022-08-14T12:53:38.298Z,99120.25
2022-08-14T12:58:51.447Z,99130.72
2022-08-14T13:04:17.322Z,99124.19
2022-08-14T13:09:23.294Z,99114.91
2022-08-14T13:14:30.053Z,99101.34
2022-08-14T13:19:33.432Z,99092.97
2022-08-14T13:24:39.564Z,99087.69
2022-08-14T13:29:43.951Z,99082.25
2022-08-14T13:34:49.848Z,99086.25
2022-08-14T13:39:57.526Z,99061.88
2022-08-14T13:45:01.614Z,99055.84
2022-08-14T13:50:07.135Z,99055.16
2022-08-14T13:55:09.921Z,99032.63
2022-08-14T14:00:17.863Z,99040.09
2022-08-14T14:05:21.064Z,99023.00
2022-08-14T14:10:28.010Z,99023.22
2022-08-14T14:15:34.021Z,99015.28
2022-08-14T14:20:51.125Z,99010.88
2022-08-14T14:25:57.411Z,99015.44
2022-08-14T14:31:06.621Z,99007.31
2022-08-14T14:36:13.985Z,99009.22
2022-08-14T14:41:18.809Z,99010.75
2022-08-14T14:46:36.410Z,99011.31
2022-08-14T14:51:43.458Z,99012.03
2022-08-14T14:56:51.945Z,98997.47
2022-08-14T15:02:02.318Z,98988.72
2022-08-14T15:07:07.141Z,98993.47
2022-08-14T15:12:34.403Z,98985.00
2022-08-14T15:17:41.771Z,98989.59
2022-08-14T15:22:50.959Z,98986.88
2022-08-14T15:27:54.729Z,98994.66
2022-08-14T15:32:56.670Z,98993.94
2022-08-14T15:38:07.532Z,98987.72
2022-08-14T15:43:11.038Z,98981.72
2022-08-14T15:48:22.237Z,98979.13
2022-08-14T15:53:25.172Z,98973.00
2022-08-14T15:58:33.519Z,98973.50
2022-08-14T16:03:41.002Z,98969.72
2022-08-14T16:08:58.537Z,98970.44
2022-08-14T16:14:01.828Z,98961.25
2022-08-14T16:24:32.475Z,98962.03
2022-08-14T16:29:37.979Z,98969.00
2022-08-14T16:34:46.245Z,98969.94
2022-08-14T16:39:50.395Z,98967.56
2022-08-14T16:40:23.787Z,98955.72
2022-08-14T16:44:58.268Z,98962.09
2022-08-14T16:50:05.057Z,98957.97
2022-08-14T16:55:13.966Z,98949.00
2022-08-14T17:00:45.337Z,98941.22
2022-08-14T17:05:48.053Z,98944.53
2022-08-14T17:10:52.770Z,98934.53
2022-08-14T17:16:24.911Z,98936.50
2022-08-14T17:21:31.375Z,98941.19
2022-08-14T17:26:43.507Z,98930.81
2022-08-14T17:31:58.632Z,98937.16
2022-08-14T17:37:03.902Z,98941.06
2022-08-14T17:42:13.271Z,98931.06
2022-08-14T17:47:18.633Z,98934.44
2022-08-14T17:52:34.368Z,98935.06
2022-08-14T17:57:40.953Z,98944.44
2022-08-14T18:02:51.121Z,98943.44
2022-08-14T18:08:32.712Z,98941.03
2022-08-14T18:13:16.371Z,98942.19
2022-08-14T18:18:18.213Z,98960.94
2022-08-14T18:23:21.533Z,98952.38
2022-08-14T18:28:46.573Z,98956.00
2022-08-14T18:33:55.336Z,98971.50
2022-08-14T18:39:25.130Z,98969.75
2022-08-14T18:45:12.701Z,98974.34
2022-08-14T18:50:27.170Z,98981.03
2022-08-14T18:55:32.149Z,98993.25
2022-08-14T19:00:40.007Z,99004.34
2022-08-14T19:05:47.678Z,98996.53
2022-08-14T19:10:52.589Z,98988.94
2022-08-14T19:16:07.989Z,98999.81
2022-08-14T19:21:32.635Z,98989.28
2022-08-14T19:26:47.440Z,98994.38
2022-08-14T19:31:59.041Z,98986.19
2022-08-14T19:37:06.325Z,98984.38
2022-08-14T19:42:14.316Z,98976.34
2022-08-14T19:47:57.796Z,98966.81
2022-08-14T19:53:05.095Z,98976.75
2022-08-14T19:58:13.291Z,98968.84
2022-08-14T20:03:18.455Z,98963.97
2022-08-14T20:10:59.615Z,98953.22
2022-08-14T20:13:45.095Z,98949.53
2022-08-14T20:18:50.149Z,98945.75
2022-08-14T20:24:40.968Z,98961.03
2022-08-14T20:29:44.464Z,98950.94
2022-08-14T20:34:51.125Z,98958.25
2022-08-14T20:39:55.549Z,98956.94
2022-08-14T20:45:21.407Z,98957.41
2022-08-14T20:50:28.786Z,98961.47
2022-08-14T20:55:37.254Z,98968.88
2022-08-14T21:00:52.121Z,98965.25
2022-08-14T21:05:56.793Z,98963.34
2022-08-14T21:10:59.783Z,98956.22
2022-08-14T21:16:03.469Z,98953.16
2022-08-14T21:21:08.898Z,98955.31
2022-08-14T21:26:11.016Z,98954.72
2022-08-14T21:31:12.858Z,98941.41
2022-08-14T21:36:22.148Z,98939.13
2022-08-14T21:41:42.850Z,98925.47
2022-08-14T21:46:54.009Z,98924.78
2022-08-14T21:52:50.792Z,98922.53
2022-08-14T21:58:44.863Z,98932.53
2022-08-14T22:02:52.762Z,98929.00
2022-08-14T22:07:57.766Z,98939.13
2022-08-14T22:13:01.473Z,98926.81
2022-08-14T22:18:04.395Z,98930.44
2022-08-14T22:23:10.615Z,98918.66
2022-08-14T22:28:17.964Z,98925.75
2022-08-14T22:33:20.434Z,98931.03
2022-08-14T22:38:35.723Z,98934.66
2022-08-14T22:43:40.625Z,98929.50
2022-08-14T22:48:44.392Z,98933.41
2022-08-14T22:53:52.609Z,98915.81
2022-08-14T22:58:57.393Z,98925.00
2022-08-14T23:03:59.415Z,98929.63
2022-08-14T23:09:36.489Z,98923.44
2022-08-14T23:14:26.818Z,98917.56
2022-08-14T23:19:34.861Z,98915.31
2022-08-14T23:24:41.425Z,98907.13
2022-08-14T23:29:44.478Z,98909.06
2022-08-14T23:34:48.329Z,98909.66
2022-08-14T23:39:53.444Z,98905.25
2022-08-14T23:44:55.644Z,98891.00
2022-08-14T23:50:03.275Z,98889.44
2022-08-14T23:55:11.040Z,98893.75
